Pelham, Massachusetts
Current Conditions -  °F | °C
As of 12:58 AM on Wednesday 26 Nov 2014 (Local Time) from KCEF Reporting Station
Few Clouds Few Clouds  
Wind Chill: 30°   Ceiling: Unl
Heat Index: 35°   Visibility: 10mi
Dew Point: 31°   Wind: 5mph
Humidity: 87%   Direction: 20°NNE
Pressure: 30.14"   Gusts: NA
Location:  42.3773°N, 72.4671°W
Report Text: KCEF 260558Z AUTO 02004KT 10SM FEW190 01/00 A3014 RMK AO2 SLP214 T00141005 10062 21002 52020
Loading
Personal Weather Stations






























Interactive Weather Map New forecast layout! Learn more

10-Day Weather Forecast

Advertisements
Track Severe Weather on mobile